createdAt,value
2023-04-18T00:00:39.644Z,103022.72
2023-04-18T00:03:06.800Z,103046.13
2023-04-18T00:05:33.950Z,103037.59
2023-04-18T00:08:00.968Z,103030.63
2023-04-18T00:10:27.957Z,103027.25
2023-04-18T00:12:55.100Z,103033.06
2023-04-18T00:15:22.024Z,103034.81
2023-04-18T00:17:48.993Z,103029.63
2023-04-18T00:20:16.179Z,103035.91
2023-04-18T00:22:44.186Z,103032.63
2023-04-18T00:25:11.703Z,103029.78
2023-04-18T00:27:39.737Z,103025.81
2023-04-18T00:30:08.368Z,103033.53
2023-04-18T00:32:35.554Z,103019.97
2023-04-18T00:35:02.620Z,103022.25
2023-04-18T00:37:30.250Z,103029.25
2023-04-18T00:39:57.418Z,103026.72
2023-04-18T00:42:28.207Z,103025.16
2023-04-18T00:44:55.285Z,103025.88
2023-04-18T00:47:22.118Z,103030.19
2023-04-18T00:49:49.732Z,103029.38
2023-04-18T00:52:18.681Z,103029.13
2023-04-18T00:54:47.584Z,103021.41
2023-04-18T00:57:15.152Z,103019.00
2023-04-18T00:59:42.993Z,103023.56
2023-04-18T01:02:09.929Z,103021.13
2023-04-18T01:04:37.492Z,103033.28
2023-04-18T01:07:04.957Z,103015.72
2023-04-18T01:09:32.078Z,103019.72
2023-04-18T01:11:59.168Z,103029.59
2023-04-18T01:14:26.271Z,103029.06
2023-04-18T01:16:53.471Z,103025.09
2023-04-18T01:19:20.342Z,103024.69
2023-04-18T01:21:47.488Z,103031.94
2023-04-18T01:24:15.876Z,102975.06
2023-04-18T01:26:45.185Z,103031.63
2023-04-18T01:29:12.206Z,103038.72
2023-04-18T01:31:40.559Z,103038.56
2023-04-18T01:34:08.234Z,103035.88
2023-04-18T01:36:36.735Z,103038.50
2023-04-18T01:39:03.859Z,103037.03
2023-04-18T01:41:33.104Z,103035.91
2023-04-18T01:44:00.638Z,103036.81
2023-04-18T01:46:28.659Z,103036.75
2023-04-18T01:48:56.592Z,103034.22
2023-04-18T01:51:23.813Z,103032.28
2023-04-18T01:53:51.396Z,103035.66
2023-04-18T01:56:18.263Z,103027.47
2023-04-18T01:58:45.441Z,103029.38
2023-04-18T02:01:12.364Z,103034.00
2023-04-18T02:03:39.512Z,103026.38
2023-04-18T02:06:06.813Z,103029.44
2023-04-18T02:08:36.168Z,103023.75
2023-04-18T02:11:03.570Z,103023.94
2023-04-18T02:13:31.219Z,103021.16
2023-04-18T02:15:58.333Z,103029.50
2023-04-18T02:18:26.801Z,103019.94
2023-04-18T02:20:53.861Z,103022.06
2023-04-18T02:23:20.965Z,103021.09
2023-04-18T02:25:47.864Z,103020.25
2023-04-18T02:28:14.752Z,103013.97
2023-04-18T02:30:43.172Z,103021.28
2023-04-18T02:33:10.082Z,103015.16
2023-04-18T02:35:37.955Z,103022.03
2023-04-18T02:38:04.850Z,103017.75
2023-04-18T02:40:31.884Z,103021.34
2023-04-18T02:42:58.961Z,103025.63
2023-04-18T02:45:25.984Z,103020.22
2023-04-18T02:47:55.941Z,103014.88
2023-04-18T02:50:24.829Z,103024.38
2023-04-18T02:52:51.764Z,103021.69
2023-04-18T02:55:19.098Z,103026.72
2023-04-18T02:57:46.042Z,103025.19
2023-04-18T03:00:13.888Z,103018.66
2023-04-18T03:02:41.411Z,103020.69
2023-04-18T03:05:09.005Z,103016.16
2023-04-18T03:07:35.998Z,103016.22
2023-04-18T03:10:03.143Z,103026.63
2023-04-18T03:12:30.224Z,103021.81
2023-04-18T03:14:57.227Z,103032.16
2023-04-18T03:17:24.169Z,103022.69
2023-04-18T03:19:50.917Z,103024.06
2023-04-18T03:22:18.000Z,103026.19
2023-04-18T03:24:45.239Z,103026.13
2023-04-18T03:27:13.635Z,103025.75
2023-04-18T03:29:43.544Z,103031.09
2023-04-18T03:32:10.850Z,103029.72
2023-04-18T03:34:38.055Z,103041.53
2023-04-18T03:37:04.892Z,103039.28
2023-04-18T03:39:31.654Z,103049.53
2023-04-18T03:41:58.675Z,103052.13
2023-04-18T03:44:25.916Z,103049.75
2023-04-18T03:46:52.919Z,103065.94
2023-04-18T03:49:20.054Z,103061.69
2023-04-18T03:51:48.170Z,103059.38
2023-04-18T03:54:16.381Z,103063.00
2023-04-18T03:56:44.415Z,103062.75
2023-04-18T03:59:12.060Z,103068.16
2023-04-18T04:01:39.179Z,103067.84
2023-04-18T04:04:06.408Z,103044.81
2023-04-18T04:06:33.532Z,103069.88
2023-04-18T04:09:01.057Z,103061.56
2023-04-18T04:11:27.910Z,103072.13
2023-04-18T04:13:54.799Z,103073.22
2023-04-18T04:16:21.969Z,103068.28
2023-04-18T04:18:49.032Z,103073.63
2023-04-18T04:21:16.029Z,103061.22
2023-04-18T04:23:43.029Z,103068.56
2023-04-18T04:26:10.261Z,103079.75
2023-04-18T04:28:37.448Z,103077.63
2023-04-18T04:31:08.626Z,103079.47
2023-04-18T04:33:36.134Z,103082.06
2023-04-18T04:36:03.057Z,103085.47
2023-04-18T04:38:31.315Z,103079.56
2023-04-18T04:40:58.756Z,103084.28
2023-04-18T04:43:26.322Z,103084.69
2023-04-18T04:45:53.777Z,103092.66
2023-04-18T04:48:22.475Z,103092.66
2023-04-18T04:50:56.849Z,103102.06
2023-04-18T04:53:25.748Z,103096.59
2023-04-18T04:55:52.913Z,103089.16
2023-04-18T04:58:20.624Z,103091.63
2023-04-18T05:00:48.326Z,103079.72
2023-04-18T05:03:15.462Z,103085.47
2023-04-18T05:05:42.903Z,103078.09
2023-04-18T05:08:09.705Z,103083.16
2023-04-18T05:10:37.434Z,103073.34
2023-04-18T05:13:04.399Z,103074.47
2023-04-18T05:15:31.914Z,103078.38
2023-04-18T05:18:02.024Z,103080.06
2023-04-18T05:20:28.960Z,103074.38
2023-04-18T05:22:56.105Z,103076.09
2023-04-18T05:25:23.121Z,103084.69
2023-04-18T05:27:51.063Z,103078.91
2023-04-18T05:30:18.448Z,103070.66
2023-04-18T05:32:45.616Z,103074.59
2023-04-18T05:35:12.728Z,103078.69
2023-04-18T05:37:39.745Z,103077.81
2023-04-18T05:40:09.212Z,103087.25
2023-04-18T05:42:36.156Z,103082.84
2023-04-18T05:45:03.576Z,103087.31
2023-04-18T05:47:30.625Z,103085.94
2023-04-18T05:49:57.908Z,103088.91
2023-04-18T05:52:26.449Z,103102.13
2023-04-18T05:54:53.654Z,103102.47
2023-04-18T05:57:20.998Z,103101.22
2023-04-18T05:59:48.048Z,103100.28
2023-04-18T06:02:15.052Z,103094.97
2023-04-18T06:04:43.164Z,103104.41
2023-04-18T06:07:10.402Z,103104.34
2023-04-18T06:09:37.595Z,103096.75
2023-04-18T06:12:04.743Z,103096.59
2023-04-18T06:14:31.733Z,103095.00
2023-04-18T06:16:59.321Z,103092.25
2023-04-18T06:19:26.378Z,103091.00
2023-04-18T06:21:53.513Z,103099.59
2023-04-18T06:24:20.877Z,103103.84
2023-04-18T06:26:47.865Z,103106.16
2023-04-18T06:29:15.019Z,103083.75
2023-04-18T06:31:42.384Z,103101.09
2023-04-18T06:34:09.639Z,103120.84
2023-04-18T06:36:36.472Z,103129.31
2023-04-18T06:39:03.627Z,103133.47
2023-04-18T06:41:31.556Z,103131.25
2023-04-18T06:46:28.667Z,103124.69
2023-04-18T06:48:55.786Z,103140.44
2023-04-18T06:51:22.772Z,103137.03
2023-04-18T06:53:52.931Z,103146.69
2023-04-18T06:56:23.193Z,103146.41
2023-04-18T06:58:50.415Z,103148.38
2023-04-18T07:01:17.500Z,103149.22
2023-04-18T07:03:44.857Z,103129.00
2023-04-18T07:06:12.239Z,103130.41
2023-04-18T07:08:39.186Z,103133.75
2023-04-18T07:11:06.875Z,103147.00
2023-04-18T07:13:33.961Z,103131.72
2023-04-18T07:16:01.750Z,103133.06
2023-04-18T07:18:37.313Z,103131.91
2023-04-18T07:21:07.948Z,103123.28
2023-04-18T07:23:35.359Z,103114.72
2023-04-18T07:26:03.330Z,103121.44
2023-04-18T07:28:31.954Z,103131.53
2023-04-18T07:30:59.346Z,103128.47
2023-04-18T07:33:26.344Z,103125.31
2023-04-18T07:35:53.347Z,103126.56
2023-04-18T07:38:20.844Z,103127.41
2023-04-18T07:40:47.777Z,103121.88
2023-04-18T07:43:15.379Z,103133.63
2023-04-18T07:45:43.479Z,103134.06
2023-04-18T07:48:11.494Z,103137.00
2023-04-18T07:50:38.450Z,103128.03
2023-04-18T07:53:05.268Z,103091.88
2023-04-18T07:55:32.255Z,103128.72
2023-04-18T07:57:59.185Z,103136.41
2023-04-18T08:00:26.648Z,103121.81
2023-04-18T08:02:53.865Z,103113.28
2023-04-18T08:05:21.050Z,103121.34
2023-04-18T08:07:47.903Z,103131.38
2023-04-18T08:10:14.985Z,103066.16
2023-04-18T08:12:42.609Z,103123.16
2023-04-18T08:15:10.106Z,103119.69
2023-04-18T08:17:39.070Z,103125.06
2023-04-18T08:20:06.858Z,103121.69
2023-04-18T08:22:33.808Z,103118.03
2023-04-18T08:25:05.411Z,103121.75
2023-04-18T08:27:33.273Z,103125.72
2023-04-18T08:30:00.875Z,103120.88
2023-04-18T08:32:27.943Z,103116.50
2023-04-18T08:34:56.263Z,103124.50
2023-04-18T08:37:23.426Z,103128.16
2023-04-18T08:39:50.528Z,103138.84
2023-04-18T08:42:21.680Z,103137.25
2023-04-18T08:44:48.990Z,103129.53
2023-04-18T08:47:16.743Z,103125.56
2023-04-18T08:49:47.323Z,103123.38
2023-04-18T08:52:17.079Z,103104.41
2023-04-18T08:54:46.968Z,103100.09
2023-04-18T08:57:23.899Z,103105.75
2023-04-18T08:59:51.334Z,103126.34
2023-04-18T09:02:19.548Z,103111.69
2023-04-18T09:04:49.741Z,103130.50
2023-04-18T09:07:17.520Z,103139.88
2023-04-18T09:09:50.305Z,103149.13
2023-04-18T09:12:25.583Z,103135.75
2023-04-18T09:14:58.035Z,103142.06
2023-04-18T09:17:42.747Z,103131.41
2023-04-18T09:20:11.251Z,103140.88
2023-04-18T09:22:58.163Z,103151.31
2023-04-18T09:25:45.351Z,103145.94
2023-04-18T09:28:29.101Z,103124.09
2023-04-18T09:30:57.809Z,103122.84
2023-04-18T09:33:35.022Z,103117.63
2023-04-18T09:36:25.215Z,103137.22
2023-04-18T09:38:56.274Z,103144.88
2023-04-18T09:41:23.986Z,103139.97
2023-04-18T09:44:08.018Z,103136.66
2023-04-18T09:46:34.955Z,103127.50
2023-04-18T09:49:02.419Z,103125.44
2023-04-18T09:51:31.797Z,103107.94
2023-04-18T09:53:59.380Z,103100.00
2023-04-18T09:56:29.889Z,103073.50
2023-04-18T09:59:06.560Z,103100.44
2023-04-18T10:01:35.026Z,103104.81
2023-04-18T10:04:04.627Z,103142.78
2023-04-18T10:06:34.213Z,103133.69
2023-04-18T10:09:04.517Z,103139.44
2023-04-18T10:11:32.395Z,103141.19
2023-04-18T10:14:04.785Z,103131.78
2023-04-18T10:16:34.096Z,103136.09
2023-04-18T10:19:26.899Z,103141.91
2023-04-18T10:21:55.399Z,103135.81
2023-04-18T10:24:48.383Z,103130.34
2023-04-18T10:27:18.977Z,103137.69
2023-04-18T10:29:53.305Z,103142.16
2023-04-18T10:32:23.486Z,103136.59
2023-04-18T10:34:53.782Z,103142.44
2023-04-18T10:37:20.803Z,103123.16
2023-04-18T10:39:50.832Z,103129.31
2023-04-18T10:42:17.881Z,103138.81
2023-04-18T10:45:37.323Z,103129.81
2023-04-18T10:48:27.414Z,103134.00
2023-04-18T10:51:16.927Z,103132.88
2023-04-18T10:53:54.282Z,103137.25
2023-04-18T10:56:21.226Z,103139.22
2023-04-18T10:58:53.199Z,103140.47
2023-04-18T11:01:31.743Z,103147.66
2023-04-18T11:04:00.655Z,103128.25
2023-04-18T11:06:28.348Z,103143.81
2023-04-18T11:09:12.633Z,103134.75
2023-04-18T11:11:40.488Z,103144.84
2023-04-18T11:14:07.697Z,103140.59
2023-04-18T11:16:35.331Z,103147.34
2023-04-18T11:19:23.094Z,103139.19
2023-04-18T11:21:51.523Z,103127.63
2023-04-18T11:24:24.668Z,103116.81
2023-04-18T11:26:56.300Z,103103.06
2023-04-18T11:29:23.574Z,103117.72
2023-04-18T11:31:56.682Z,103110.47
2023-04-18T11:34:30.764Z,103117.41
2023-04-18T11:36:58.137Z,103127.81
2023-04-18T11:39:25.207Z,103123.03
2023-04-18T11:41:52.215Z,103155.97
2023-04-18T11:44:24.195Z,103111.38
2023-04-18T11:46:51.741Z,103126.06
2023-04-18T11:49:46.238Z,103124.78
2023-04-18T11:52:14.871Z,103103.75
2023-04-18T11:54:45.808Z,103113.09
2023-04-18T11:57:27.128Z,103113.44
2023-04-18T11:59:59.757Z,103125.38
2023-04-18T12:02:39.286Z,103110.88
2023-04-18T12:05:07.098Z,103120.31
2023-04-18T12:07:51.946Z,103126.78
2023-04-18T12:10:27.886Z,103118.22
2023-04-18T12:12:59.151Z,103116.38
2023-04-18T12:15:28.982Z,103112.25
2023-04-18T12:18:05.162Z,103122.09
2023-04-18T12:20:36.655Z,103113.72
2023-04-18T12:23:04.817Z,103117.50
2023-04-18T12:25:32.192Z,103121.53
2023-04-18T12:28:04.293Z,103112.97
2023-04-18T12:30:37.596Z,103124.00
2023-04-18T12:33:09.331Z,103104.25
2023-04-18T12:35:36.835Z,103109.59
2023-04-18T12:38:04.915Z,103111.50
2023-04-18T12:40:32.036Z,103107.28
2023-04-18T12:43:00.085Z,103097.28
2023-04-18T12:45:28.100Z,103105.97
2023-04-18T12:47:55.134Z,103096.09
2023-04-18T12:50:24.764Z,103096.31
2023-04-18T12:52:54.903Z,103089.56
2023-04-18T12:55:22.955Z,103091.56
2023-04-18T12:57:52.133Z,103090.03
2023-04-18T13:00:19.843Z,103072.91
2023-04-18T13:02:47.069Z,103089.31
2023-04-18T13:05:15.937Z,103081.78
2023-04-18T13:07:44.147Z,103083.03
2023-04-18T13:10:13.479Z,103080.72
2023-04-18T13:12:41.726Z,103076.72
2023-04-18T13:15:09.942Z,103061.50
2023-04-18T13:17:37.603Z,103064.13
2023-04-18T13:20:07.069Z,103074.81
2023-04-18T13:22:34.581Z,103075.81
2023-04-18T13:25:01.540Z,103079.56
2023-04-18T13:27:29.008Z,103063.31
2023-04-18T13:29:56.406Z,103077.81
2023-04-18T13:32:23.811Z,103076.22
2023-04-18T13:34:50.912Z,103079.47
2023-04-18T13:37:18.063Z,103074.97
2023-04-18T13:39:45.143Z,103077.16
2023-04-18T13:42:13.531Z,103082.59
2023-04-18T13:44:42.374Z,103081.22
2023-04-18T13:47:09.535Z,103079.03
2023-04-18T13:49:36.812Z,103069.28
2023-04-18T13:52:04.608Z,103069.78
2023-04-18T13:54:33.088Z,103071.22
2023-04-18T13:57:06.020Z,103075.16
2023-04-18T13:59:33.002Z,103082.00
2023-04-18T14:02:00.251Z,103079.03
2023-04-18T14:04:27.693Z,103081.41
2023-04-18T14:06:55.337Z,103071.06
2023-04-18T14:09:22.353Z,103077.53
2023-04-18T14:11:49.562Z,103072.59
2023-04-18T14:14:16.708Z,103070.84
2023-04-18T14:16:43.690Z,103073.41
2023-04-18T14:19:10.580Z,103079.84
2023-04-18T14:21:37.581Z,103066.16
2023-04-18T14:24:06.015Z,103051.75
2023-04-18T14:26:32.875Z,103068.00
2023-04-18T14:29:00.741Z,103074.75
2023-04-18T14:31:28.530Z,103064.63
2023-04-18T14:33:55.452Z,103060.13
2023-04-18T14:36:22.372Z,103075.53
2023-04-18T14:38:50.498Z,103071.56
2023-04-18T14:41:17.481Z,103071.66
2023-04-18T14:43:44.731Z,103074.19
2023-04-18T14:46:13.513Z,103070.31
2023-04-18T14:48:40.666Z,103072.72
2023-04-18T14:51:08.142Z,103065.53
2023-04-18T14:53:35.557Z,103071.03
2023-04-18T14:56:02.484Z,103073.09
2023-04-18T14:58:29.456Z,103061.59
2023-04-18T15:00:56.827Z,103062.50
2023-04-18T15:03:23.823Z,103062.16
2023-04-18T15:05:53.203Z,103064.69
2023-04-18T15:08:20.113Z,103065.63
2023-04-18T15:10:47.730Z,103056.50
2023-04-18T15:13:14.902Z,103064.09
2023-04-18T15:15:42.379Z,103056.88
2023-04-18T15:18:10.596Z,103081.47
2023-04-18T15:20:37.887Z,103068.59
2023-04-18T15:23:04.854Z,103066.34
2023-04-18T15:25:31.879Z,103062.69
2023-04-18T15:27:58.997Z,103036.41
2023-04-18T15:30:26.236Z,103062.94
2023-04-18T15:32:54.247Z,103055.94
2023-04-18T15:35:21.344Z,103054.03
2023-04-18T15:37:49.635Z,103048.66
2023-04-18T15:40:18.390Z,103055.94
2023-04-18T15:42:46.450Z,103055.66
2023-04-18T15:45:13.534Z,103003.16
2023-04-18T15:47:41.513Z,103044.75
2023-04-18T15:50:11.618Z,103048.63
2023-04-18T15:52:41.097Z,103053.34
2023-04-18T15:55:10.328Z,103056.50
2023-04-18T15:57:37.690Z,103053.13
2023-04-18T16:00:26.682Z,103049.47
2023-04-18T16:02:53.569Z,103052.31
2023-04-18T16:05:20.524Z,103044.53
2023-04-18T16:07:47.453Z,103054.91
2023-04-18T16:10:15.508Z,103054.03
2023-04-18T16:12:42.626Z,103061.88
2023-04-18T16:15:11.457Z,103055.16
2023-04-18T16:17:39.178Z,103052.38
2023-04-18T16:20:08.648Z,103004.31
2023-04-18T16:22:35.630Z,103058.53
2023-04-18T16:25:06.430Z,103076.47
2023-04-18T16:27:33.646Z,103060.53
2023-04-18T16:30:00.574Z,103062.22
2023-04-18T16:32:27.563Z,103059.41
2023-04-18T16:34:54.419Z,103056.06
2023-04-18T16:37:21.546Z,103065.00
2023-04-18T16:39:48.646Z,103059.97
2023-04-18T16:42:16.751Z,103068.31
2023-04-18T16:44:45.545Z,103053.47
2023-04-18T16:47:12.438Z,103068.91
2023-04-18T16:49:39.270Z,103061.63
2023-04-18T16:52:06.157Z,103079.75
2023-04-18T16:54:33.230Z,103075.28
2023-04-18T16:57:00.048Z,103072.75
2023-04-18T16:59:26.996Z,103074.44
2023-04-18T17:01:54.071Z,103072.50
2023-04-18T17:04:22.059Z,103080.00
2023-04-18T17:06:51.482Z,103077.47
2023-04-18T17:09:19.885Z,103080.81
2023-04-18T17:11:47.179Z,103088.03
2023-04-18T17:14:14.434Z,103088.31
2023-04-18T17:16:42.612Z,103079.34
2023-04-18T17:19:10.267Z,103085.75
2023-04-18T17:21:38.049Z,103098.78
2023-04-18T17:24:07.170Z,103088.44
2023-04-18T17:26:35.196Z,103096.22
2023-04-18T17:29:04.449Z,103090.31
2023-04-18T17:31:32.282Z,103093.66
2023-04-18T17:34:00.360Z,103097.53
2023-04-18T17:36:27.523Z,103111.09
2023-04-18T17:38:54.528Z,103107.75
2023-04-18T17:41:22.078Z,103122.19
2023-04-18T17:43:53.896Z,103102.03
2023-04-18T17:46:21.253Z,103097.78
2023-04-18T17:48:48.558Z,103108.31
2023-04-18T17:51:19.605Z,103117.38
2023-04-18T17:53:47.227Z,103112.31
2023-04-18T17:56:14.756Z,103114.22
2023-04-18T17:58:41.593Z,103119.44
2023-04-18T18:01:15.856Z,103115.47
2023-04-18T18:03:44.152Z,103096.25
2023-04-18T18:06:15.083Z,103121.22
2023-04-18T18:08:43.605Z,103109.84
2023-04-18T18:11:11.073Z,103116.00
2023-04-18T18:13:39.405Z,103125.78
2023-04-18T18:16:06.833Z,103123.94
2023-04-18T18:18:33.972Z,103125.94
2023-04-18T18:21:01.116Z,103138.03
2023-04-18T18:23:30.440Z,103126.34
2023-04-18T18:25:57.440Z,103127.28
2023-04-18T18:28:24.274Z,103134.03
2023-04-18T18:30:51.375Z,103137.91
2023-04-18T18:33:18.436Z,103141.38
2023-04-18T18:35:45.226Z,103144.44
2023-04-18T18:38:12.259Z,103144.44
2023-04-18T18:40:39.318Z,103145.44
2023-04-18T18:43:06.381Z,103153.88
2023-04-18T18:45:33.511Z,103155.06
2023-04-18T18:48:00.708Z,103157.00
2023-04-18T18:50:31.287Z,103161.28
2023-04-18T18:52:58.242Z,103165.16
2023-04-18T18:55:25.461Z,103167.84
2023-04-18T18:57:52.407Z,103165.06
2023-04-18T19:00:19.667Z,103169.59
2023-04-18T19:02:46.716Z,103172.53
2023-04-18T19:05:13.815Z,103179.72
2023-04-18T19:07:43.759Z,103175.97
2023-04-18T19:10:11.147Z,103182.53
2023-04-18T19:12:38.498Z,103176.88
2023-04-18T19:15:06.245Z,103189.22
2023-04-18T19:17:33.167Z,103186.09
2023-04-18T19:20:01.974Z,103188.47
2023-04-18T19:22:29.604Z,103181.91
2023-04-18T19:24:56.677Z,103191.34
2023-04-18T19:27:23.643Z,103194.72
2023-04-18T19:29:50.859Z,103180.50
2023-04-18T19:32:17.947Z,103183.03
2023-04-18T19:34:44.983Z,103185.09
2023-04-18T19:37:11.854Z,103184.38
2023-04-18T19:39:38.835Z,103182.44
2023-04-18T19:42:05.876Z,103190.31
2023-04-18T19:44:33.496Z,103182.00
2023-04-18T19:47:00.719Z,103184.06
2023-04-18T19:49:27.631Z,103184.56
2023-04-18T19:51:54.926Z,103185.66
2023-04-18T19:54:22.056Z,103185.75
2023-04-18T19:56:49.311Z,103190.56
2023-04-18T19:59:16.510Z,103188.53
2023-04-18T20:01:43.600Z,103187.91
2023-04-18T20:04:10.812Z,103195.53
2023-04-18T20:06:37.968Z,103170.50
2023-04-18T20:09:05.846Z,103189.66
2023-04-18T20:11:32.643Z,103188.69
2023-04-18T20:13:59.522Z,103191.00
2023-04-18T20:16:26.427Z,103197.97
2023-04-18T20:18:55.022Z,103181.34
2023-04-18T20:21:22.046Z,103204.59
2023-04-18T20:23:48.938Z,103209.44
2023-04-18T20:26:15.923Z,103212.84
2023-04-18T20:28:43.002Z,103204.97
2023-04-18T20:31:12.165Z,103205.44
2023-04-18T20:33:39.062Z,103200.03
2023-04-18T20:36:08.950Z,103207.50
2023-04-18T20:38:37.288Z,103209.56
2023-04-18T20:41:04.433Z,103206.44
2023-04-18T20:43:37.496Z,103209.31
2023-04-18T20:46:04.631Z,103214.28
2023-04-18T20:48:31.544Z,103215.72
2023-04-18T20:50:58.532Z,103220.38
2023-04-18T20:53:27.349Z,103224.75
2023-04-18T20:55:54.313Z,103225.19
2023-04-18T20:58:21.314Z,103230.63
2023-04-18T21:00:49.063Z,103227.22
2023-04-18T21:03:17.233Z,103224.44
2023-04-18T21:05:45.221Z,103228.41
2023-04-18T21:08:13.692Z,103226.97
2023-04-18T21:10:40.947Z,103215.59
2023-04-18T21:13:09.414Z,103232.94
2023-04-18T21:15:36.685Z,103232.16
2023-04-18T21:18:03.905Z,103239.03
2023-04-18T21:20:30.942Z,103243.78
2023-04-18T21:22:58.109Z,103245.06
2023-04-18T21:25:24.964Z,103243.81
2023-04-18T21:27:52.208Z,103241.00
2023-04-18T21:30:19.164Z,103240.69
2023-04-18T21:32:47.333Z,103241.69
2023-04-18T21:35:16.096Z,103248.16
2023-04-18T21:37:44.274Z,103250.16
2023-04-18T21:40:11.353Z,103263.78
2023-04-18T21:42:38.358Z,103257.19
2023-04-18T21:45:06.493Z,103254.09
2023-04-18T21:47:33.479Z,103254.81
2023-04-18T21:50:00.505Z,103257.94
2023-04-18T21:52:27.504Z,103255.56
2023-04-18T21:54:54.557Z,103257.41
2023-04-18T21:57:21.471Z,103259.66
2023-04-18T21:59:48.487Z,103254.13
2023-04-18T22:02:15.705Z,103256.03
2023-04-18T22:04:45.490Z,103242.88
2023-04-18T22:07:12.738Z,103254.44
2023-04-18T22:09:40.089Z,103250.88
2023-04-18T22:12:07.062Z,103253.53
2023-04-18T22:14:34.487Z,103258.28
2023-04-18T22:17:03.657Z,103253.72
2023-04-18T22:19:31.506Z,103249.19
2023-04-18T22:21:58.761Z,103256.66
2023-04-18T22:24:27.781Z,103256.47
2023-04-18T22:26:54.758Z,103255.28
2023-04-18T22:29:21.605Z,103253.34
2023-04-18T22:31:48.504Z,103226.13
2023-04-18T22:34:15.884Z,103252.94
2023-04-18T22:36:43.998Z,103255.13
2023-04-18T22:39:12.334Z,103252.59
2023-04-18T22:41:39.250Z,103245.00
2023-04-18T22:44:06.208Z,103251.41
2023-04-18T22:46:33.347Z,103247.66
2023-04-18T22:49:00.800Z,103250.16
2023-04-18T22:51:29.015Z,103255.72
2023-04-18T22:53:56.657Z,103254.69
2023-04-18T22:56:26.741Z,103259.25
2023-04-18T22:58:53.688Z,103255.72
2023-04-18T23:01:20.805Z,103254.75
2023-04-18T23:03:48.090Z,103260.91
2023-04-18T23:06:15.158Z,103255.22
2023-04-18T23:08:42.343Z,103254.97
2023-04-18T23:11:10.952Z,103262.88
2023-04-18T23:13:37.956Z,103256.41
2023-04-18T23:16:05.135Z,103265.00
2023-04-18T23:18:32.216Z,103263.72
2023-04-18T23:21:00.342Z,103259.59
2023-04-18T23:23:27.430Z,103259.81
2023-04-18T23:25:54.359Z,103251.47
2023-04-18T23:28:21.390Z,103254.22
2023-04-18T23:30:50.478Z,103250.34
2023-04-18T23:33:17.259Z,103253.09
2023-04-18T23:35:44.246Z,103250.75
2023-04-18T23:38:11.505Z,103254.78
2023-04-18T23:40:41.355Z,103248.25
2023-04-18T23:43:08.238Z,103222.00
2023-04-18T23:45:36.732Z,103245.34
2023-04-18T23:48:03.859Z,103249.75
2023-04-18T23:50:31.011Z,103238.31
2023-04-18T23:52:57.934Z,103228.63
2023-04-18T23:55:24.858Z,103237.22
2023-04-18T23:57:51.706Z,103238.09
